createdAt,value
2022-11-24T00:01:32.918Z,15.07
2022-11-24T00:03:37.302Z,17.48
2022-11-24T00:05:40.966Z,14.95
2022-11-24T00:07:44.860Z,20.80
2022-11-24T00:09:48.658Z,18.75
2022-11-24T00:11:53.903Z,16.75
2022-11-24T00:13:58.932Z,13.50
2022-11-24T00:16:11.201Z,18.80
2022-11-24T00:18:15.069Z,15.68
2022-11-24T00:20:19.961Z,17.38
2022-11-24T00:22:24.074Z,19.48
2022-11-24T00:24:27.592Z,17.90
2022-11-24T00:26:33.307Z,11.15
2022-11-24T00:28:39.125Z,11.75
2022-11-24T00:30:42.929Z,21.02
2022-11-24T00:32:46.674Z,21.08
2022-11-24T00:34:50.142Z,18.30
2022-11-24T00:36:53.672Z,14.13
2022-11-24T00:38:58.430Z,23.75
2022-11-24T00:41:02.071Z,15.68
2022-11-24T00:43:05.735Z,20.63
2022-11-24T00:45:14.148Z,18.25
2022-11-24T00:47:18.101Z,21.23
2022-11-24T00:49:21.551Z,18.15
2022-11-24T00:51:28.195Z,19.55
2022-11-24T00:53:32.222Z,18.60
2022-11-24T00:55:36.094Z,13.98
2022-11-24T00:57:39.897Z,23.15
2022-11-24T00:59:43.455Z,19.95
2022-11-24T01:01:48.407Z,11.88
2022-11-24T01:03:52.438Z,15.20
2022-11-24T01:05:56.175Z,23.85
2022-11-24T01:07:59.836Z,15.70
2022-11-24T01:10:03.644Z,23.92
2022-11-24T01:12:09.178Z,19.95
2022-11-24T01:14:12.974Z,22.92
2022-11-24T01:16:18.978Z,18.63
2022-11-24T01:18:24.366Z,16.15
2022-11-24T01:20:27.892Z,17.35
2022-11-24T01:22:31.537Z,14.93
2022-11-24T01:24:35.248Z,12.23
2022-11-24T01:26:39.939Z,15.75
2022-11-24T01:28:46.991Z,24.38
2022-11-24T01:30:59.299Z,20.83
2022-11-24T01:33:02.971Z,22.98
2022-11-24T01:35:09.236Z,16.58
2022-11-24T01:37:12.715Z,28.75
2022-11-24T01:39:16.370Z,21.13
2022-11-24T01:41:21.741Z,21.48
2022-11-24T01:43:25.347Z,18.42
2022-11-24T01:45:33.918Z,12.80
2022-11-24T01:47:41.165Z,15.32
2022-11-24T01:49:48.430Z,21.25
2022-11-24T01:51:57.418Z,20.63
2022-11-24T01:54:04.083Z,23.25
2022-11-24T01:56:09.936Z,15.95
2022-11-24T01:58:17.252Z,18.10
2022-11-24T02:00:21.131Z,15.98
2022-11-24T02:02:26.577Z,15.40
2022-11-24T02:04:34.469Z,18.45
2022-11-24T02:06:40.773Z,23.77
2022-11-24T02:08:50.833Z,16.35
2022-11-24T02:10:56.351Z,18.65
2022-11-24T02:13:01.510Z,26.13
2022-11-24T02:15:05.536Z,13.25
2022-11-24T02:17:09.959Z,15.35
2022-11-24T02:19:19.759Z,20.73
2022-11-24T02:21:23.409Z,13.63
2022-11-24T02:23:38.635Z,12.55
2022-11-24T02:25:51.626Z,17.60
2022-11-24T02:27:58.499Z,17.48
2022-11-24T02:30:02.334Z,17.40
2022-11-24T02:32:09.310Z,22.48
2022-11-24T02:34:13.150Z,27.08
2022-11-24T02:36:16.784Z,17.75
2022-11-24T02:38:21.202Z,11.23
2022-11-24T02:40:28.324Z,21.73
2022-11-24T02:42:37.199Z,20.00
2022-11-24T02:44:48.553Z,10.95
2022-11-24T02:47:02.617Z,22.25
2022-11-24T02:49:06.418Z,14.63
2022-11-24T02:51:10.156Z,25.35
2022-11-24T02:53:14.020Z,17.83
2022-11-24T02:55:17.824Z,18.58
2022-11-24T02:57:23.592Z,13.93
2022-11-24T02:59:27.366Z,11.48
2022-11-24T03:01:32.742Z,21.05
2022-11-24T03:03:36.435Z,22.42
2022-11-24T03:05:40.520Z,25.75
2022-11-24T03:07:44.234Z,20.55
2022-11-24T03:09:48.002Z,25.10
2022-11-24T03:11:51.814Z,20.65
2022-11-24T03:13:55.595Z,27.15
2022-11-24T03:15:59.084Z,23.80
2022-11-24T03:18:04.349Z,28.17
2022-11-24T03:20:08.999Z,20.17
2022-11-24T03:22:13.786Z,14.65
2022-11-24T03:24:17.570Z,21.83
2022-11-24T03:26:23.400Z,34.10
2022-11-24T03:28:26.956Z,14.15
2022-11-24T03:30:30.967Z,26.15
2022-11-24T03:32:34.675Z,35.97
2022-11-24T03:34:39.855Z,36.00
2022-11-24T03:36:45.275Z,23.40
2022-11-24T03:38:48.853Z,28.77
2022-11-24T03:40:54.069Z,33.13
2022-11-24T03:42:57.798Z,35.92
2022-11-24T03:45:16.656Z,16.67
2022-11-24T03:47:25.220Z,39.15
2022-11-24T03:49:28.922Z,32.90
2022-11-24T03:51:33.953Z,27.02
2022-11-24T03:53:37.893Z,27.98
2022-11-24T03:55:41.479Z,34.90
2022-11-24T03:57:44.796Z,33.50
2022-11-24T03:59:48.113Z,28.33
2022-11-24T04:01:51.576Z,30.85
2022-11-24T04:03:54.863Z,36.72
2022-11-24T04:05:58.357Z,29.60
2022-11-24T04:08:03.918Z,29.25
2022-11-24T04:10:08.170Z,25.67
2022-11-24T04:12:29.342Z,31.80
2022-11-24T04:14:33.097Z,36.22
2022-11-24T04:16:36.617Z,36.90
2022-11-24T04:18:40.026Z,25.42
2022-11-24T04:20:43.723Z,32.03
2022-11-24T04:22:47.035Z,27.63
2022-11-24T04:24:51.894Z,28.33
2022-11-24T04:26:55.242Z,28.40
2022-11-24T04:28:58.527Z,36.28
2022-11-24T04:31:03.510Z,36.67
2022-11-24T04:33:07.126Z,31.17
2022-11-24T04:35:10.567Z,21.40
2022-11-24T04:37:14.146Z,30.52
2022-11-24T04:39:19.592Z,21.55
2022-11-24T04:41:30.920Z,33.45
2022-11-24T04:43:40.293Z,26.52
2022-11-24T04:45:44.193Z,33.28
2022-11-24T04:47:47.487Z,48.80
2022-11-24T04:49:51.359Z,29.05
2022-11-24T04:51:54.580Z,24.60
2022-11-24T04:53:57.905Z,34.25
2022-11-24T04:56:01.277Z,37.83
2022-11-24T04:58:08.156Z,23.60
2022-11-24T05:00:12.606Z,57.75
2022-11-24T05:02:16.020Z,30.45
2022-11-24T05:04:21.482Z,25.98
2022-11-24T05:06:25.071Z,32.22
2022-11-24T05:08:28.532Z,48.28
2022-11-24T05:10:36.531Z,30.65
2022-11-24T05:12:39.891Z,29.63
2022-11-24T05:14:44.512Z,29.67
2022-11-24T05:16:47.918Z,36.63
2022-11-24T05:18:51.240Z,30.45
2022-11-24T05:20:54.963Z,47.53
2022-11-24T05:23:03.061Z,40.83
2022-11-24T05:25:06.968Z,30.52
2022-11-24T05:27:10.235Z,32.75
2022-11-24T05:29:13.882Z,26.00
2022-11-24T05:31:19.003Z,34.42
2022-11-24T05:33:23.229Z,27.17
2022-11-24T05:35:26.956Z,23.42
2022-11-24T05:37:30.451Z,26.60
2022-11-24T05:39:34.530Z,24.45
2022-11-24T05:41:38.205Z,31.55
2022-11-24T05:43:41.770Z,28.55
2022-11-24T05:45:46.039Z,28.98
2022-11-24T05:47:51.911Z,34.20
2022-11-24T05:49:55.681Z,44.58
2022-11-24T05:51:59.321Z,30.17
2022-11-24T05:54:03.022Z,37.38
2022-11-24T05:56:07.130Z,25.67
2022-11-24T05:58:11.895Z,43.85
2022-11-24T06:00:18.172Z,41.65
2022-11-24T06:02:22.178Z,37.83
2022-11-24T06:04:27.535Z,26.85
2022-11-24T06:06:31.470Z,31.50
2022-11-24T06:08:35.886Z,27.88
2022-11-24T06:10:39.565Z,29.63
2022-11-24T06:12:43.265Z,41.03
2022-11-24T06:14:47.112Z,38.75
2022-11-24T06:16:50.985Z,26.77
2022-11-24T06:18:54.767Z,39.63
2022-11-24T06:21:10.298Z,26.10
2022-11-24T06:23:15.401Z,35.08
2022-11-24T06:25:19.110Z,32.50
2022-11-24T06:27:23.145Z,25.88
2022-11-24T06:29:27.024Z,24.30
2022-11-24T06:31:31.065Z,27.00
2022-11-24T06:33:35.460Z,28.50
2022-11-24T06:35:39.233Z,35.13
2022-11-24T06:37:45.951Z,22.55
2022-11-24T06:39:50.102Z,32.45
2022-11-24T06:41:54.100Z,21.70
2022-11-24T06:43:57.652Z,30.58
2022-11-24T06:46:01.838Z,24.90
2022-11-24T06:48:06.008Z,26.63
2022-11-24T06:50:11.216Z,29.58
2022-11-24T06:52:15.186Z,26.55
2022-11-24T06:54:22.404Z,28.95
2022-11-24T06:56:25.899Z,22.73
2022-11-24T06:58:29.832Z,24.48
2022-11-24T07:00:33.666Z,29.08
2022-11-24T07:02:42.517Z,17.65
2022-11-24T07:04:49.388Z,25.88
2022-11-24T07:06:53.198Z,30.67
2022-11-24T07:08:57.221Z,30.42
2022-11-24T07:11:07.479Z,25.95
2022-11-24T07:13:11.770Z,27.48
2022-11-24T07:15:15.812Z,30.05
2022-11-24T07:17:19.801Z,35.92
2022-11-24T07:19:25.259Z,31.50
2022-11-24T07:21:30.906Z,24.95
2022-11-24T07:23:36.530Z,46.22
2022-11-24T07:25:41.032Z,37.65
2022-11-24T07:27:46.070Z,35.50
2022-11-24T07:29:49.828Z,27.38
2022-11-24T07:31:53.522Z,31.45
2022-11-24T07:33:58.365Z,17.92
2022-11-24T07:36:02.829Z,27.30
2022-11-24T07:38:06.892Z,22.73
2022-11-24T07:40:12.072Z,23.10
2022-11-24T07:42:15.871Z,31.70
2022-11-24T07:44:21.348Z,22.52
2022-11-24T07:46:25.479Z,13.70
2022-11-24T07:48:29.067Z,22.42
2022-11-24T07:50:32.885Z,21.08
2022-11-24T07:52:36.762Z,18.95
2022-11-24T07:54:40.343Z,22.55
2022-11-24T07:56:44.268Z,31.73
2022-11-24T07:58:52.702Z,15.07
2022-11-24T08:00:58.786Z,18.00
2022-11-24T08:03:02.399Z,17.42
2022-11-24T08:05:06.769Z,17.65
2022-11-24T08:07:10.359Z,18.50
2022-11-24T08:09:14.152Z,17.15
2022-11-24T08:11:19.562Z,19.08
2022-11-24T08:13:23.380Z,27.85
2022-11-24T08:15:26.777Z,23.58
2022-11-24T08:17:31.941Z,24.05
2022-11-24T08:19:35.737Z,23.73
2022-11-24T08:21:39.792Z,16.92
2022-11-24T08:23:43.761Z,21.23
2022-11-24T08:25:47.529Z,16.85
2022-11-24T08:27:51.255Z,20.70
2022-11-24T08:29:55.041Z,19.10
2022-11-24T08:31:59.357Z,19.65
2022-11-24T08:34:07.042Z,14.13
2022-11-24T08:36:12.244Z,21.00
2022-11-24T08:38:17.320Z,19.52
2022-11-24T08:40:21.024Z,35.85
2022-11-24T08:42:24.519Z,23.83
2022-11-24T08:44:29.053Z,14.73
2022-11-24T08:46:32.649Z,15.70
2022-11-24T08:48:36.853Z,13.50
2022-11-24T08:50:41.848Z,15.88
2022-11-24T08:52:45.543Z,18.52
2022-11-24T08:54:49.652Z,18.90
2022-11-24T08:56:53.926Z,8.93
2022-11-24T08:58:58.172Z,6.28
2022-11-24T09:01:06.561Z,8.25
2022-11-24T09:03:13.764Z,4.85
2022-11-24T09:05:50.249Z,4.65
2022-11-24T09:07:43.724Z,3.20
2022-11-24T09:09:48.398Z,2.85
2022-11-24T09:11:52.372Z,3.58
2022-11-24T09:13:57.058Z,4.57
2022-11-24T09:16:05.339Z,1.23
2022-11-24T09:18:09.250Z,3.00
2022-11-24T09:20:13.460Z,2.47
2022-11-24T09:22:19.583Z,3.00
2022-11-24T09:24:25.601Z,3.25
2022-11-24T09:26:31.953Z,3.08
2022-11-24T09:28:35.884Z,4.85
2022-11-24T09:30:41.267Z,8.20
2022-11-24T09:32:45.483Z,10.88
2022-11-24T09:34:49.350Z,3.53
2022-11-24T09:36:53.251Z,4.93
2022-11-24T09:38:57.440Z,13.80
2022-11-24T09:41:31.350Z,17.38
2022-11-24T09:46:05.428Z,11.43
2022-11-24T09:48:14.359Z,13.48
2022-11-24T09:50:22.065Z,20.02
2022-11-24T09:52:42.103Z,21.55
2022-11-24T09:54:53.680Z,24.00
2022-11-24T09:57:02.281Z,15.75
2022-11-24T09:59:15.250Z,16.73
2022-11-24T10:01:21.766Z,21.70
2022-11-24T10:03:31.646Z,16.63
2022-11-24T10:05:38.627Z,22.90
2022-11-24T10:07:51.452Z,17.10
2022-11-24T10:10:02.733Z,30.25
2022-11-24T10:12:19.090Z,16.60
2022-11-24T10:14:43.133Z,20.80
2022-11-24T10:16:55.265Z,23.40
2022-11-24T10:19:13.415Z,25.00
2022-11-24T10:21:34.119Z,24.95
2022-11-24T10:23:56.900Z,17.65
2022-11-24T10:26:02.423Z,18.83
2022-11-24T10:28:14.305Z,40.85
2022-11-24T10:30:21.231Z,19.42
2022-11-24T10:32:32.199Z,14.77
2022-11-24T10:34:40.426Z,18.48
2022-11-24T10:36:52.183Z,24.50
2022-11-24T10:39:07.336Z,24.10
2022-11-24T10:41:18.442Z,29.17
2022-11-24T10:43:24.254Z,31.63
2022-11-24T10:45:30.925Z,24.52
2022-11-24T10:47:35.648Z,23.00
2022-11-24T10:49:40.336Z,33.53
2022-11-24T10:51:53.820Z,27.55
2022-11-24T10:54:02.995Z,30.17
2022-11-24T10:56:08.037Z,25.67
2022-11-24T10:58:18.611Z,23.25
2022-11-24T11:00:36.174Z,28.13
2022-11-24T11:02:42.120Z,22.13
2022-11-24T11:04:46.861Z,27.15
2022-11-24T11:06:51.594Z,23.50
2022-11-24T11:09:20.475Z,19.58
2022-11-24T11:11:29.496Z,16.08
2022-11-24T11:13:33.700Z,20.45
2022-11-24T11:15:39.515Z,22.23
2022-11-24T11:17:46.136Z,23.65
2022-11-24T11:19:58.476Z,21.88
2022-11-24T11:22:08.435Z,30.45
2022-11-24T11:24:18.137Z,23.02
2022-11-24T11:26:34.168Z,23.85
2022-11-24T11:28:38.264Z,25.25
2022-11-24T11:31:18.171Z,21.42
2022-11-24T11:35:54.550Z,20.77
2022-11-24T11:38:02.412Z,26.65
2022-11-24T11:40:14.849Z,27.30
2022-11-24T11:43:00.053Z,29.50
2022-11-24T11:44:57.321Z,17.90
2022-11-24T11:47:13.221Z,33.63
2022-11-24T11:49:17.683Z,23.35
2022-11-24T11:51:36.355Z,22.17
2022-11-24T11:53:46.671Z,20.98
2022-11-24T11:56:10.201Z,25.02
2022-11-24T12:00:33.955Z,26.08
2022-11-24T12:03:04.112Z,24.30
2022-11-24T12:05:19.028Z,13.63
2022-11-24T12:07:48.845Z,17.42
2022-11-24T12:10:02.976Z,45.38
2022-11-24T12:12:24.601Z,17.15
2022-11-24T12:14:35.906Z,27.05
2022-11-24T12:16:49.968Z,16.92
2022-11-24T12:19:06.183Z,25.35
2022-11-24T12:21:24.621Z,31.85
2022-11-24T12:23:39.539Z,19.35
2022-11-24T12:25:47.823Z,24.00
2022-11-24T12:28:00.570Z,24.77
2022-11-24T12:30:12.852Z,27.10
2022-11-24T12:32:31.191Z,28.70
2022-11-24T12:34:48.098Z,29.98
2022-11-24T12:37:06.498Z,20.15
2022-11-24T12:39:25.140Z,22.02
2022-11-24T12:41:47.739Z,19.33
2022-11-24T12:43:54.021Z,30.40
2022-11-24T12:46:03.699Z,31.20
2022-11-24T12:48:22.484Z,32.05
2022-11-24T12:50:30.840Z,38.83
2022-11-24T12:52:39.547Z,23.52
2022-11-24T12:54:43.026Z,26.75
2022-11-24T12:56:54.891Z,30.13
2022-11-24T12:59:10.655Z,19.15
2022-11-24T13:01:25.069Z,25.42
2022-11-24T13:03:38.883Z,25.10
2022-11-24T13:05:53.575Z,27.35
2022-11-24T13:07:59.788Z,48.63
2022-11-24T13:10:55.678Z,22.60
2022-11-24T13:12:57.325Z,29.88
2022-11-24T13:15:01.036Z,28.02
2022-11-24T13:17:39.708Z,36.00
2022-11-24T13:19:48.119Z,27.42
2022-11-24T13:22:15.786Z,27.17
2022-11-24T13:24:25.641Z,26.50
2022-11-24T13:26:35.282Z,26.98
2022-11-24T13:29:08.909Z,29.77
2022-11-24T13:31:24.367Z,30.25
2022-11-24T13:33:36.759Z,19.48
2022-11-24T13:35:41.426Z,31.55
2022-11-24T13:37:52.975Z,30.13
2022-11-24T13:39:58.614Z,34.45
2022-11-24T13:42:02.944Z,25.58
2022-11-24T13:44:24.954Z,27.52
2022-11-24T13:47:05.585Z,32.42
2022-11-24T13:49:16.343Z,18.95
2022-11-24T13:51:24.948Z,22.10
2022-11-24T13:53:35.945Z,24.02
2022-11-24T13:55:43.886Z,24.42
2022-11-24T13:57:49.521Z,24.67
2022-11-24T14:00:03.256Z,28.80
2022-11-24T14:02:26.886Z,23.17
2022-11-24T14:04:33.731Z,21.58
2022-11-24T14:06:46.504Z,21.50
2022-11-24T14:08:53.225Z,27.95
2022-11-24T14:10:59.429Z,19.38
2022-11-24T14:13:29.804Z,17.63
2022-11-24T14:15:40.685Z,21.45
2022-11-24T14:17:48.473Z,30.83
2022-11-24T14:19:56.227Z,22.65
2022-11-24T14:21:59.997Z,35.35
2022-11-24T14:24:14.073Z,27.65
2022-11-24T14:26:21.737Z,32.00
2022-11-24T14:28:28.388Z,24.45
2022-11-24T14:30:32.094Z,26.40
2022-11-24T14:32:35.607Z,36.15
2022-11-24T14:34:39.492Z,23.80
2022-11-24T14:36:43.621Z,29.23
2022-11-24T14:38:47.434Z,33.05
2022-11-24T14:40:55.233Z,29.80
2022-11-24T14:42:58.908Z,36.28
2022-11-24T14:45:04.356Z,27.77
2022-11-24T14:47:14.466Z,35.45
2022-11-24T14:49:23.670Z,45.63
2022-11-24T14:51:31.084Z,33.20
2022-11-24T14:53:36.662Z,37.72
2022-11-24T14:55:40.621Z,36.28
2022-11-24T14:57:46.259Z,36.08
2022-11-24T15:00:10.367Z,32.78
2022-11-24T15:02:44.185Z,24.42
2022-11-24T15:05:03.586Z,34.33
2022-11-24T15:07:17.020Z,33.65
2022-11-24T15:09:27.037Z,33.53
2022-11-24T15:11:32.435Z,31.33
2022-11-24T15:13:39.903Z,19.60
2022-11-24T15:15:50.990Z,38.05
2022-11-24T15:17:57.532Z,30.15
2022-11-24T15:20:09.272Z,33.55
2022-11-24T15:22:35.823Z,30.52
2022-11-24T15:24:50.928Z,27.25
2022-11-24T15:27:01.507Z,29.02
2022-11-24T15:29:06.550Z,20.80
2022-11-24T15:31:13.493Z,19.27
2022-11-24T15:33:19.176Z,9.82
2022-11-24T15:35:24.043Z,3.55
2022-11-24T15:37:32.785Z,5.50
2022-11-24T15:39:38.002Z,7.75
2022-11-24T15:41:42.550Z,10.07
2022-11-24T15:43:46.533Z,9.07
2022-11-24T15:45:51.631Z,7.80
2022-11-24T15:47:55.451Z,7.65
2022-11-24T15:49:59.144Z,9.35
2022-11-24T15:52:02.835Z,19.63
2022-11-24T15:54:07.361Z,16.92
2022-11-24T15:56:17.223Z,20.38
2022-11-24T15:58:20.998Z,16.92
2022-11-24T16:00:25.608Z,12.27
2022-11-24T16:02:30.881Z,12.30
2022-11-24T16:04:35.068Z,10.68
2022-11-24T16:06:38.785Z,15.18
2022-11-24T16:08:42.510Z,11.10
2022-11-24T16:10:46.446Z,10.88
2022-11-24T16:12:50.200Z,9.98
2022-11-24T16:14:53.954Z,17.27
2022-11-24T16:16:57.918Z,14.93
2022-11-24T16:19:03.183Z,18.42
2022-11-24T16:21:08.523Z,20.58
2022-11-24T16:23:12.031Z,24.25
2022-11-24T16:25:16.352Z,19.95
2022-11-24T16:27:20.070Z,20.90
2022-11-24T16:29:24.485Z,21.70
2022-11-24T16:31:28.502Z,20.80
2022-11-24T16:33:32.396Z,19.05
2022-11-24T16:35:37.719Z,20.83
2022-11-24T16:37:41.533Z,20.73
2022-11-24T16:39:50.042Z,20.83
2022-11-24T16:41:54.089Z,26.25
2022-11-24T16:43:57.940Z,20.23
2022-11-24T16:46:17.647Z,23.70
2022-11-24T16:48:21.448Z,22.50
2022-11-24T16:50:25.227Z,23.27
2022-11-24T16:52:30.360Z,23.55
2022-11-24T16:54:34.076Z,22.35
2022-11-24T16:56:38.475Z,28.00
2022-11-24T16:58:42.906Z,18.00
2022-11-24T17:00:46.787Z,26.80
2022-11-24T17:02:50.456Z,34.60
2022-11-24T17:04:54.351Z,23.50
2022-11-24T17:06:58.593Z,20.10
2022-11-24T17:09:03.749Z,25.95
2022-11-24T17:11:08.115Z,20.90
2022-11-24T17:13:11.637Z,23.13
2022-11-24T17:15:32.749Z,20.67
2022-11-24T17:17:37.643Z,24.63
2022-11-24T17:19:41.421Z,22.40
2022-11-24T17:21:45.235Z,36.45
2022-11-24T17:23:49.243Z,35.90
2022-11-24T17:25:54.586Z,48.20
2022-11-24T17:27:58.116Z,37.75
2022-11-24T17:30:01.762Z,40.30
2022-11-24T17:32:05.422Z,21.75
2022-11-24T17:34:09.048Z,13.65
2022-11-24T17:36:13.114Z,16.33
2022-11-24T17:38:16.838Z,16.90
2022-11-24T17:40:28.378Z,16.67
2022-11-24T17:42:34.782Z,28.70
2022-11-24T17:44:38.859Z,44.35
2022-11-24T17:46:42.921Z,12.35
2022-11-24T17:48:49.806Z,47.55
2022-11-24T17:51:02.763Z,41.63
2022-11-24T17:53:06.974Z,46.13
2022-11-24T17:55:15.154Z,21.77
2022-11-24T17:57:19.905Z,26.98
2022-11-24T17:59:25.663Z,37.25
2022-11-24T18:01:31.729Z,45.50
2022-11-24T18:03:37.113Z,72.68
2022-11-24T18:05:43.384Z,53.08
2022-11-24T18:07:47.078Z,96.45
2022-11-24T18:09:51.223Z,83.97
2022-11-24T18:11:55.210Z,84.68
2022-11-24T18:14:04.324Z,33.53
2022-11-24T18:16:13.944Z,70.72
2022-11-24T18:18:19.411Z,120.53
2022-11-24T18:20:29.240Z,21.40
2022-11-24T18:23:04.538Z,20.70
2022-11-24T18:25:08.234Z,16.83
2022-11-24T18:27:13.255Z,15.02
2022-11-24T18:29:18.366Z,14.07
2022-11-24T18:31:24.116Z,40.83
2022-11-24T18:33:29.204Z,55.10
2022-11-24T18:35:33.267Z,28.17
2022-11-24T18:37:46.474Z,18.65
2022-11-24T18:39:52.048Z,9.98
2022-11-24T18:42:01.625Z,16.17
2022-11-24T18:44:19.994Z,23.58
2022-11-24T18:46:30.142Z,23.23
2022-11-24T18:48:35.613Z,20.50
2022-11-24T18:50:39.285Z,19.33
2022-11-24T18:52:48.312Z,12.23
2022-11-24T18:54:57.736Z,9.20
2022-11-24T18:57:04.453Z,7.10
2022-11-24T18:59:13.458Z,12.27
2022-11-24T19:01:28.394Z,17.17
2022-11-24T19:03:34.294Z,37.28
2022-11-24T19:05:37.672Z,16.75
2022-11-24T19:07:41.396Z,12.07
2022-11-24T19:09:48.077Z,16.95
2022-11-24T19:11:56.711Z,18.55
2022-11-24T19:14:00.164Z,19.33
2022-11-24T19:16:04.492Z,20.35
2022-11-24T19:18:14.088Z,18.70
2022-11-24T19:20:22.115Z,12.35
2022-11-24T19:22:31.337Z,16.05
2022-11-24T19:24:40.807Z,65.30
2022-11-24T19:26:44.672Z,46.97
2022-11-24T19:28:48.525Z,14.65
2022-11-24T19:30:52.080Z,22.40
2022-11-24T19:32:56.762Z,12.10
2022-11-24T19:35:00.418Z,24.27
2022-11-24T19:37:06.366Z,22.55
2022-11-24T19:39:14.732Z,21.60
2022-11-24T19:41:21.799Z,13.95
2022-11-24T19:43:25.423Z,22.35
2022-11-24T19:45:30.420Z,32.00
2022-11-24T19:47:34.710Z,17.13
2022-11-24T19:49:38.463Z,24.40
2022-11-24T19:51:42.147Z,12.85
2022-11-24T19:53:47.754Z,16.70
2022-11-24T19:55:51.647Z,13.40
2022-11-24T19:57:55.703Z,12.10
2022-11-24T19:59:59.479Z,17.70
2022-11-24T20:02:03.265Z,38.28
2022-11-24T20:04:09.164Z,14.90
2022-11-24T20:06:14.914Z,15.43
2022-11-24T20:08:18.637Z,20.27
2022-11-24T20:10:23.959Z,9.23
2022-11-24T20:12:27.511Z,13.73
2022-11-24T20:14:31.277Z,14.13
2022-11-24T20:16:36.463Z,12.65
2022-11-24T20:18:42.596Z,16.33
2022-11-24T20:20:46.607Z,14.00
2022-11-24T20:22:50.912Z,10.93
2022-11-24T20:24:54.623Z,33.05
2022-11-24T20:27:00.816Z,17.17
2022-11-24T20:29:06.495Z,12.68
2022-11-24T20:31:12.673Z,10.77
2022-11-24T20:33:16.595Z,12.88
2022-11-24T20:35:20.901Z,8.13
2022-11-24T20:37:24.852Z,11.32
2022-11-24T20:39:29.941Z,7.32
2022-11-24T20:41:36.200Z,8.95
2022-11-24T20:43:43.004Z,8.70
2022-11-24T20:45:47.065Z,12.45
2022-11-24T20:47:51.203Z,12.20
2022-11-24T20:49:55.223Z,18.33
2022-11-24T20:51:59.303Z,10.32
2022-11-24T20:54:07.320Z,8.10
2022-11-24T20:56:14.206Z,8.48
2022-11-24T20:58:17.862Z,15.05
2022-11-24T21:00:23.105Z,12.20
2022-11-24T21:02:27.540Z,13.18
2022-11-24T21:04:31.531Z,8.95
2022-11-24T21:06:35.974Z,7.80
2022-11-24T21:08:42.067Z,10.70
2022-11-24T21:10:54.898Z,14.13
2022-11-24T21:12:58.666Z,6.65
2022-11-24T21:15:02.529Z,10.57
2022-11-24T21:17:08.170Z,14.32
2022-11-24T21:19:15.106Z,10.32
2022-11-24T21:21:20.626Z,15.77
2022-11-24T21:23:24.390Z,12.02
2022-11-24T21:25:28.301Z,13.32
2022-11-24T21:27:32.020Z,14.02
2022-11-24T21:29:35.644Z,13.88
2022-11-24T21:31:40.263Z,10.70
2022-11-24T21:33:47.354Z,14.77
2022-11-24T21:35:51.278Z,9.82
2022-11-24T21:37:56.190Z,15.43
2022-11-24T21:39:59.983Z,14.68
2022-11-24T21:42:03.685Z,11.65
2022-11-24T21:44:07.751Z,13.13
2022-11-24T21:46:13.121Z,9.57
2022-11-24T21:48:17.093Z,12.15
2022-11-24T21:50:23.214Z,14.82
2022-11-24T21:52:27.329Z,7.20
2022-11-24T21:54:31.219Z,6.85
2022-11-24T21:56:34.966Z,10.52
2022-11-24T21:58:38.650Z,11.82
2022-11-24T22:00:42.313Z,6.03
2022-11-24T22:02:46.080Z,9.07
2022-11-24T22:04:49.705Z,5.90
2022-11-24T22:06:56.066Z,13.50
2022-11-24T22:08:59.928Z,11.88
2022-11-24T22:11:05.235Z,21.40
2022-11-24T22:13:08.982Z,6.03
2022-11-24T22:15:13.192Z,11.25
2022-11-24T22:17:16.880Z,7.95
2022-11-24T22:19:20.726Z,11.05
2022-11-24T22:21:30.164Z,7.28
2022-11-24T22:23:37.034Z,9.20
2022-11-24T22:25:41.076Z,7.30
2022-11-24T22:27:44.816Z,10.65
2022-11-24T22:29:53.883Z,7.00
2022-11-24T22:31:58.783Z,3.42
2022-11-24T22:34:03.124Z,8.02
2022-11-24T22:36:08.248Z,8.57
2022-11-24T22:38:12.038Z,5.75
2022-11-24T22:40:17.418Z,6.55
2022-11-24T22:42:21.190Z,7.82
2022-11-24T22:44:24.790Z,7.22
2022-11-24T22:46:30.853Z,4.63
2022-11-24T22:48:35.049Z,4.90
2022-11-24T22:50:38.820Z,5.25
2022-11-24T22:52:44.040Z,3.90
2022-11-24T22:54:47.652Z,2.58
2022-11-24T22:56:52.639Z,5.18
2022-11-24T22:58:56.844Z,3.95
2022-11-24T23:01:06.605Z,3.03
2022-11-24T23:03:10.289Z,4.28
2022-11-24T23:05:18.010Z,5.57
2022-11-24T23:07:24.584Z,9.10
2022-11-24T23:09:29.049Z,6.38
2022-11-24T23:11:38.012Z,6.32
2022-11-24T23:13:44.204Z,5.95
2022-11-24T23:15:47.862Z,6.97
2022-11-24T23:17:51.387Z,13.63
2022-11-24T23:19:55.133Z,9.93
2022-11-24T23:21:58.695Z,5.55
2022-11-24T23:24:04.786Z,6.55
2022-11-24T23:26:10.369Z,7.88
2022-11-24T23:28:14.186Z,5.07
2022-11-24T23:30:19.521Z,7.32
2022-11-24T23:32:23.270Z,8.55
2022-11-24T23:34:26.887Z,4.68
2022-11-24T23:36:31.261Z,8.85
2022-11-24T23:38:35.086Z,7.07
2022-11-24T23:40:38.793Z,9.27
2022-11-24T23:42:42.751Z,10.02
2022-11-24T23:44:46.177Z,4.95
2022-11-24T23:46:51.089Z,7.78
2022-11-24T23:48:55.909Z,6.68
2022-11-24T23:51:05.563Z,4.07
2022-11-24T23:53:09.300Z,2.90
2022-11-24T23:55:13.151Z,8.18
2022-11-24T23:57:16.809Z,8.63
2022-11-24T23:59:20.576Z,3.00
